Pagrindinis puslapis
METAR-TAF:

METAR-TAF

Oro uostai :

Waco, Teksasas, Jungtinės Amerikos Valstijos

platuma: 31-37-02N, ilguma: 097-13-40W, Aukštis: 157 m

Dabartinis oras

Ataskaita buvo paskelbta 58 minutes, ne 01:51 UTC
Ramus vėjas
Temperatūra 13°C
Drėgmė 88%
Slėgis 1018 hPa
Matomumas: 16.1 km
Su prošvaistėmis ne aukštis 4200 ft

METAR: KACT 010151Z 00000KT 10SM BKN042 13/11 A3005 RMK AO2 SLP172 T01280106

Laikas: 21:49 (02:49 UTC)

Prognozė

Ataskaita buvo paskelbta 3 valandos ir 12 minutes, ne 23:37 UTC
Prognozė galioja nuo 01 metu 00 UTC su 01 metu 24 UTC
Vėjas 8 kt iš Šiaurės/Šiaurės Rytų
Matomumas: 10 km
Mažai debesys ne aukštis 20000 ft
Nuo 01 metu 0300 UTC
Vėjas 3 kt iš Rytų/Pietryčių
Matomumas: 10 km
Giedras dangus
Nuo 01 metu 1700 UTC
Vėjas 13 kt iš Pietų
Matomumas: 10 km
Išsisklaidę debesys ne aukštis 25000 ft

TAF: KACT 312337Z 0100/0124 02008KT P6SM FEW200 FM010300 11003KT P6SM SKC FM011700 17013KT P6SM SCT250

Orai ataskaitas ir orų prognozės (METAR, TAF).

turimą stotys yra geltonos ir raudonos taškus žemėlapyje.

Perkelti pele per norėdami pamatyti stoties vardą.

Tada spustelėkite, norėdami matyti oro stebėjimo ir prognozės.

Norėdami pakeisti žemėlapį: spustelėkite ant žalios mygtukų su juodo kryžiaus žemyn,; žalią mygtuką su brūkšneliu, jei norite nutolinti; arba žalių rodyklių gretimoms žemėlapius.


METAR-TAF: